Menaam, Netherlands
Current Conditions -  °F | °C
As of 12:55 PM on Friday 28 Nov 2014 (Local Time) from EHLW Reporting Station
Haze Haze  
Wind Chill: 33°   Ceiling: Unl
Heat Index: 41°   Visibility: 4mi
Dew Point: 36°   Wind: 14mph
Humidity: 81%   Direction: 100°E
Pressure: 29.85"   Gusts: NA
Location:  53.22°N, 5.66°E
Report Text: EHLW 281155Z AUTO 10012KT 7000 BR SCT080 BKN091 OVC097 05/02 Q1011 WHT 10013KT 7000 NSC
Loading
Personal Weather Stations






























Interactive Weather Map New forecast layout! Learn more

10-Day Weather Forecast

Advertisements
Track Severe Weather on mobile